Terminal Aerodrome Forecast
Issued by NWS

Home | Current Version | Previous Version | Text Only | Print | Product List | Glossary On
Versions: 1 2 3 4 5 6 7 8 9 10 11 12 13 14 15 16
000
FTUS43 KAPX 221735
TAFTVC
TAF
KTVC 221735Z 2218/2318 14006KT P6SM SKC
     FM222200 10005KT P6SM OVC080
     FM230200 09005KT P6SM -RASN SCT015 OVC035
     FM230600 11008KT 5SM -RA BR OVC015
     FM230800 10010KT 4SM -RA BR OVC009=

USA.gov is the U.S. government's official web portal to all federal, state and local government web resources and services.